Latest Weather Observations for Charleville

IDQ60801

Issued at 6:02 pm EST Friday 12 February 2016 (issued every 30 minutes, with the page automatically refreshed every 10 minutes)

About weather observations | Map of weather stations | Latest weather observations for QLD | Other Formats
Station Details ID: 044021 Name: CHARLEVILLE AERO Lat: -26.41 Lon: 146.26 Height: 301.6 m
Data from the previous 72 hours. | See also: Recent months at Charleville
Date/Time
EST
Temp
°C
App
Temp
°C
Dew
Point
Rel
Hum
%
Delta-T
°C
Wind Press
QNH
hPa
Press
MSL
hPa
Rain
since 9 am
mm
Dir
 
Spd
km/h
Gust
km/h
Spd
kts
Gust
kts
12/06:00pm 34.1 31.3 7.0 18 15.1 SSE 11 15 6 8 1009.7 1007.9 0.0
12/05:30pm 34.3 30.1 5.7 17 15.6 ESE 17 26 9 14 1009.4 - 0.0
12/05:00pm 34.7 30.2 6.2 17 15.7 SSE 19 24 10 13 1009.3 - 0.0
12/04:30pm 34.4 30.3 6.3 17 15.5 ESE 17 26 9 14 1009.4 - 0.0
12/04:00pm 34.3 29.7 6.6 18 15.3 SE 20 30 11 16 1009.5 - 0.0
12/03:30pm 34.0 30.1 6.9 18 15.1 SSE 17 20 9 11 1009.7 - 0.0
12/03:00pm 34.1 31.6 8.3 20 14.7 SE 11 19 6 10 1010.0 1008.2 0.0
12/02:30pm 35.1 32.3 8.5 19 15.2 ESE 13 22 7 12 1010.3 - 0.0
12/02:00pm 33.8 31.1 9.0 21 14.2 S 13 22 7 12 1010.9 - 0.0
12/01:30pm 34.0 30.4 8.3 20 14.6 SW 17 22 9 12 1011.3 - 0.0
12/01:00pm 34.7 32.3 10.1 22 14.4 E 13 22 7 12 1011.3 - 0.0
12/12:30pm 34.2 31.8 8.5 20 14.7 ESE 11 20 6 11 1011.9 - 0.0
12/12:00pm 33.6 31.5 8.3 21 14.3 WSW 9 19 5 10 1012.3 1010.5 0.0
12/11:30am 33.3 31.2 8.2 21 14.2 NE 9 11 5 6 1012.7 - 0.0
12/11:00am 32.5 30.3 9.5 24 13.2 ESE 11 22 6 12 1013.1 - 0.0
12/10:30am 31.9 30.3 11.7 29 12.0 NW 11 15 6 8 1013.2 - 0.0
12/10:00am 31.1 29.5 12.7 32 11.0 N 13 17 7 9 1013.3 - 0.0
12/09:30am 29.9 28.3 12.8 35 10.2 NNE 13 17 7 9 1013.5 - 0.0
12/09:00am 29.2 27.2 13.8 39 9.3 NE 17 24 9 13 1013.5 1011.7 0.0
12/08:30am 28.3 26.7 13.8 41 8.8 NE 15 19 8 10 1013.4 - 0.0
12/08:00am 27.2 26.3 13.8 43 8.1 NNE 11 13 6 7 1013.3 - 0.0
12/07:30am 24.9 24.5 14.2 51 6.4 NNE 9 13 5 7 1013.1 - 0.0
12/07:00am 23.2 23.1 14.0 56 5.5 N 7 9 4 5 1012.8 - 0.0
12/06:30am 21.2 22.5 14.0 63 4.2 CALM 0 0 0 0 1012.4 - 0.0
12/06:00am 20.0 21.2 13.7 67 3.7 CALM 0 0 0 0 1011.9 1010.1 0.0
12/05:30am 20.1 21.2 13.5 66 3.8 CALM 0 0 0 0 1011.6 - 0.0
12/05:00am 20.9 21.9 13.3 62 4.4 CALM 0 7 0 4 1011.0 - 0.0
12/04:30am 21.2 22.2 13.3 60 4.6 CALM 0 0 0 0 1011.0 - 0.0
12/04:00am 21.7 22.6 13.0 57 5.0 CALM 0 0 0 0 1010.8 - 0.0
12/03:30am 21.6 22.4 12.7 57 5.1 CALM 0 0 0 0 1010.8 - 0.0
12/03:00am 21.0 20.3 13.3 61 4.5 NE 9 9 5 5 1010.7 1008.9 0.0
12/02:30am 21.2 20.7 12.6 58 4.9 NE 7 7 4 4 1010.8 - 0.0
12/02:00am 21.5 21.5 12.5 56 5.2 NE 4 9 2 5 1010.8 - 0.0
12/01:30am 21.9 22.5 12.0 53 5.6 CALM 0 0 0 0 1011.3 - 0.0
12/01:00am 22.1 22.8 12.2 53 5.7 CALM 0 0 0 0 1011.5 - 0.0
12/12:30am 22.4 22.7 12.2 52 5.8 NNE 2 6 1 3 1011.6 - 0.0
12/12:00am 22.7 22.0 11.3 48 6.4 NNE 6 7 3 4 1011.7 1009.9 0.0
 
Date/Time
EST
Temp
°C
App
Temp
°C
Dew
Point
Rel
Hum
%
Delta-T
°C
Wind Press
QNH
hPa
Press
MSL
hPa
Rain
since 9 am
mm
Dir
 
Spd
km/h
Gust
km/h
Spd
kts
Gust
kts
11/11:30pm 23.1 22.8 11.4 47 6.6 NE 4 7 2 4 1012.0 - 0.0
11/11:00pm 23.8 24.4 11.8 47 6.9 CALM 0 0 0 0 1012.0 - 0.0
11/10:30pm 24.6 25.1 11.5 44 7.5 CALM 0 0 0 0 1012.1 - 0.0
11/10:00pm 26.2 25.3 11.5 40 8.5 ENE 7 9 4 5 1012.0 - 0.0
11/09:30pm 26.7 25.1 10.1 35 9.4 ENE 9 11 5 6 1011.8 - 0.0
11/09:00pm 27.0 25.3 9.9 34 9.6 E 9 11 5 6 1011.7 1009.9 0.0
11/08:30pm 28.2 26.4 9.5 31 10.5 E 9 9 5 5 1011.5 - 0.0
11/08:00pm 29.6 27.4 7.9 25 12.0 E 9 11 5 6 1011.0 - 0.0
11/07:30pm 30.6 27.4 6.8 22 13.0 E 13 15 7 8 1010.7 - 0.0
11/07:00pm 31.4 27.8 6.8 21 13.5 E 15 20 8 11 1010.3 - 0.0
11/06:30pm 32.3 28.6 6.1 19 14.2 E 15 19 8 10 1009.9 - 0.0
11/06:00pm 33.0 28.7 6.8 19 14.5 ESE 19 24 10 13 1009.5 1007.7 0.0
11/05:30pm 33.2 28.9 7.2 20 14.5 E 19 28 10 15 1009.2 - 0.0
11/05:00pm 33.6 29.7 7.1 19 14.7 ESE 17 28 9 15 1009.1 - 0.0
11/04:30pm 33.3 28.4 6.8 19 14.6 ESE 22 32 12 17 1009.1 - 0.0
11/04:00pm 33.3 30.3 7.5 20 14.4 E 13 24 7 13 1009.2 - 0.0
11/03:30pm 33.6 30.4 6.7 19 14.9 E 13 24 7 13 1009.4 - 0.0
11/03:00pm 33.7 30.0 6.2 18 15.1 SE 15 28 8 15 1009.6 1007.8 0.0
11/02:30pm 34.0 28.3 6.9 18 15.1 ESE 26 37 14 20 1010.0 - 0.0
11/02:00pm 32.8 29.4 7.6 21 14.1 ESE 15 24 8 13 1010.6 - 0.0
11/01:30pm 33.3 30.4 6.7 19 14.7 ESE 11 20 6 11 1010.8 - 0.0
11/01:00pm 32.3 29.9 7.1 21 13.9 SSE 9 17 5 9 1011.3 - 0.0
11/12:30pm 32.8 30.1 7.5 20 14.1 SSE 11 22 6 12 1011.8 - 0.0
11/12:00pm 32.0 30.5 8.3 23 13.3 NE 6 11 3 6 1012.0 1010.2 0.0
11/11:30am 31.9 28.2 6.3 20 13.9 SE 15 22 8 12 1012.4 - 0.0
11/11:00am 32.0 27.8 7.3 21 13.7 ESE 19 26 10 14 1012.7 - 0.0
11/10:30am 31.0 28.0 9.1 25 12.4 NE 15 22 8 12 1012.8 - 0.0
11/10:00am 30.2 27.6 9.3 27 11.8 WNW 13 19 7 10 1013.1 - 0.0
11/09:30am 30.1 28.2 10.5 29 11.3 N 11 17 6 9 1013.1 - 0.0
11/09:00am 29.4 27.3 9.9 29 11.1 NE 11 17 6 9 1013.1 1011.3 0.0
11/08:30am 28.4 27.9 12.0 36 9.6 NW 6 9 3 5 1013.2 - 0.0
11/08:00am 27.0 28.4 14.5 46 7.6 CALM 0 0 0 0 1013.0 - 0.0
11/07:30am 24.1 25.8 15.1 57 5.5 CALM 0 0 0 0 1012.8 - 0.0
11/07:00am 22.0 23.6 14.9 64 4.3 CALM 0 0 0 0 1012.6 - 0.0
11/06:30am 18.8 20.3 14.7 77 2.4 CALM 0 0 0 0 1012.1 - 0.0
11/06:00am 18.2 19.6 14.5 79 2.2 CALM 0 0 0 0 1011.7 1009.9 0.0
11/05:30am 18.5 20.0 14.6 78 2.3 CALM 0 0 0 0 1011.3 - 0.0
11/05:00am 19.4 19.5 14.5 73 2.9 NE 7 11 4 6 1010.8 - 0.0
11/04:30am 19.1 20.6 14.7 75 2.6 CALM 0 0 0 0 1010.6 - 0.0
11/04:00am 19.4 20.9 14.6 74 2.8 CALM 0 0 0 0 1010.6 - 0.0
11/03:30am 19.8 21.2 14.4 71 3.2 CALM 0 0 0 0 1010.5 - 0.0
11/03:00am 20.3 21.7 14.5 69 3.4 CALM 0 0 0 0 1010.6 1008.8 0.0
11/02:30am 20.7 22.0 14.2 66 3.8 CALM 0 0 0 0 1010.6 - 0.0
11/02:00am 21.1 22.4 14.2 64 4.1 CALM 0 0 0 0 1010.8 - 0.0
11/01:30am 21.8 23.1 14.1 61 4.5 CALM 0 0 0 0 1011.2 - 0.0
11/01:00am 23.0 23.0 13.7 55 5.5 E 6 7 3 4 1011.5 - 0.0
11/12:30am 24.1 23.5 13.5 51 6.3 ENE 9 11 5 6 1011.8 - 0.0
11/12:00am 24.6 24.0 13.5 50 6.6 NE 9 9 5 5 1012.0 1010.2 0.0
 
Date/Time
EST
Temp
°C
App
Temp
°C
Dew
Point
Rel
Hum
%
Delta-T
°C
Wind Press
QNH
hPa
Press
MSL
hPa
Rain
since 9 am
mm
Dir
 
Spd
km/h
Gust
km/h
Spd
kts
Gust
kts
10/11:30pm 25.4 24.7 13.2 46 7.2 ENE 9 11 5 6 1012.3 - 0.0
10/11:00pm 25.8 24.7 13.0 45 7.6 ENE 11 13 6 7 1012.4 - 0.0
10/10:30pm 26.2 25.4 13.0 44 7.8 ENE 9 11 5 6 1012.5 - 0.0
10/10:00pm 26.9 25.5 12.2 40 8.6 E 11 15 6 8 1012.3 - 0.0
10/09:30pm 27.7 25.7 11.4 36 9.4 E 13 17 7 9 1012.2 - 0.0
10/09:00pm 28.1 26.0 11.1 34 9.8 E 13 17 7 9 1012.0 1010.2 0.0
10/08:30pm 28.6 26.3 10.3 32 10.5 E 13 15 7 8 1011.7 - 0.0
10/08:00pm 29.3 26.5 9.9 30 11.1 E 15 19 8 10 1011.3 - 0.0
10/07:30pm 30.0 27.5 9.8 28 11.5 ENE 13 15 7 8 1010.9 - 0.0
10/07:00pm 30.9 27.1 9.2 26 12.3 E 19 28 10 15 1010.5 - 0.0
10/06:30pm 31.8 28.3 8.8 24 13.0 ESE 17 24 9 13 1010.2 - 0.0
10/06:00pm 32.4 28.2 8.4 22 13.6 E 20 28 11 15 1009.9 1008.1 0.0
10/05:30pm 32.5 29.6 9.5 24 13.2 E 15 26 8 14 1009.8 - 0.0
10/05:00pm 32.4 29.1 9.4 24 13.2 E 17 26 9 14 1009.6 - 0.0
10/04:30pm 33.2 29.8 9.3 23 13.7 S 17 26 9 14 1009.6 - 0.0
10/04:00pm 33.9 30.6 9.7 22 14.0 ESE 17 32 9 17 1009.8 - 0.0
10/03:30pm 32.2 28.9 9.6 24 13.0 ESE 17 28 9 15 1010.0 - 0.0
10/03:00pm 33.3 31.0 10.3 24 13.4 ESE 13 20 7 11 1010.3 1008.5 0.0
10/02:30pm 32.3 28.4 9.4 24 13.1 SSE 20 32 11 17 1010.7 - 0.0
10/02:00pm 32.1 29.6 11.2 27 12.3 SE 15 22 8 12 1011.0 - 0.0
10/01:30pm 32.5 29.7 10.1 25 13.0 E 15 30 8 16 1011.6 - 0.0
10/01:00pm 32.4 30.2 10.8 26 12.7 E 13 19 7 10 1012.0 - 0.0
10/12:30pm 31.6 28.8 9.9 26 12.5 E 15 22 8 12 1012.4 - 0.0
10/12:00pm 31.6 28.4 11.1 28 12.0 E 19 28 10 15 1012.7 1010.9 0.0
10/11:30am 31.1 27.5 10.7 28 11.9 ESE 20 28 11 15 1013.1 - 0.0
10/11:00am 29.5 27.9 12.8 35 10.0 NNE 13 20 7 11 1013.5 - 0.0
10/10:30am 30.1 29.6 13.8 37 9.9 N 9 19 5 10 1013.8 - 0.0
10/10:00am 29.2 27.7 14.3 40 9.1 NNE 15 20 8 11 1014.1 - 0.0
10/09:30am 27.9 26.5 14.4 43 8.2 N 15 22 8 12 1014.3 - 0.0
10/09:00am 26.8 25.3 15.2 49 7.1 N 17 26 9 14 1014.2 1012.5 0.0
10/08:30am 26.6 24.6 15.0 49 7.1 NE 19 24 10 13 1014.0 - -
10/08:00am 25.5 24.2 14.7 51 6.5 NE 15 20 8 11 1013.7 - -
10/07:30am 24.3 22.6 14.7 55 5.8 NE 17 26 9 14 1013.5 - -
10/07:00am 23.3 22.7 14.7 58 5.2 ENE 11 19 6 10 1013.2 - 0.0
10/06:30am 19.7 20.3 15.8 78 2.4 SE 7 7 4 4 1012.9 - -
10/06:00am 19.1 20.6 15.8 81 2.0 SE 2 6 1 3 1012.6 1010.8 -
10/05:30am 19.6 20.1 15.6 78 2.4 SE 7 9 4 5 1012.4 - -
10/05:00am 19.5 21.6 16.2 81 2.0 CALM 0 0 0 0 1011.7 - -
10/04:30am 19.5 21.4 15.7 78 2.3 CALM 0 0 0 0 1011.7 - -
10/04:00am 19.9 21.3 15.4 75 2.7 SSE 2 6 1 3 1011.7 - -
10/03:30am 20.5 21.1 15.7 74 2.9 ESE 7 7 4 4 1011.6 - -
10/03:00am 21.0 21.5 15.6 71 3.3 ESE 7 9 4 5 1011.6 1009.8 -
10/02:30am 21.5 21.6 15.6 69 3.6 E 9 9 5 5 1011.8 - -
10/02:00am 21.7 21.7 15.3 67 3.9 ESE 9 9 5 5 1011.9 - -
10/01:30am 22.5 22.8 15.1 63 4.5 E 7 11 4 6 1012.1 - -
10/01:00am 22.7 23.1 15.3 63 4.5 ESE 7 9 4 5 1012.4 - -
10/12:30am 23.2 23.6 15.2 60 4.8 ESE 7 7 4 4 1012.6 - -
10/12:00am 24.5 24.7 14.8 54 5.9 E 7 9 4 5 1012.9 1011.1 -
 
Date/Time
EST
Temp
°C
App
Temp
°C
Dew
Point
Rel
Hum
%
Delta-T
°C
Wind Press
QNH
hPa
Press
MSL
hPa
Rain
since 9 am
mm
Dir
 
Spd
km/h
Gust
km/h
Spd
kts
Gust
kts
09/11:30pm 25.1 24.9 14.7 52 6.3 E 9 9 5 5 1013.1 - -
09/11:00pm 25.8 25.6 14.6 50 6.8 ENE 9 13 5 7 1013.4 - -
09/10:30pm 26.3 25.6 14.4 48 7.2 ENE 11 13 6 7 1013.6 - -
09/10:00pm 27.2 25.5 13.6 43 8.2 E 15 20 8 11 1013.6 - -
09/09:30pm 27.8 25.0 13.2 40 8.7 E 20 28 11 15 1013.5 - -
09/09:00pm 28.3 25.9 12.8 38 9.2 E 17 24 9 13 1013.1 1011.3 -
09/08:30pm 28.7 26.3 12.8 37 9.5 E 17 24 9 13 1012.9 - -
09/08:00pm 29.1 26.8 13.0 37 9.6 E 17 26 9 14 1012.7 - -
09/07:30pm 29.8 26.3 12.1 33 10.5 E 22 30 12 16 1012.5 - -
09/07:00pm 30.6 27.2 11.3 30 11.3 ESE 20 28 11 15 1012.2 - -
09/06:30pm 31.4 28.0 11.2 29 11.9 E 20 30 11 16 1011.8 - -

Other Formats:

Comma delimited format used in spreadsheet applications
http://www.bom.gov.au/fwo/IDQ60801/IDQ60801.94510.axf

JavaScript Object Notation format (JSON) in row-major order
http://www.bom.gov.au/fwo/IDQ60801/IDQ60801.94510.json